Aviation Digital Data Service (ADDS)

Output produced by METARs form (1919 UTC 14 December 2018)
found at http://www.aviationweather.gov/metar/data/
 
Forecast for: LTCI (VAN , TR)
Text: TAF LTCI 141640Z 1418/1503 27010KT 9999 SCT035
Forecast period: 1800 UTC 14 December 2018 to 0300 UTC 15 December 2018
Forecast type: FROM: standard forecast or significant change
Winds: from the W (270 degrees) at 12 MPH (10 knots; 5.1 m/s)
Visibility: 6 or more miles 10+ km)
Ceiling: at least 12,000 feet AGL
Clouds: scattered clouds at 3500 feet AGL
Weather: no significant weather forecast for this period
Text: BECMG 1418/1420 15008KT
Forecast period: 1800 UTC 14 December 2018 to 0300 UTC 15 December 2018
Forecast type: BECOMING: Conditions expected to become as follows by 2000 UTC 14 December 2018
Winds: from the SSE (150 degrees) at 9 MPH (8 knots; 4.1 m/s)
Visibility: 6 or more miles 10+ km)
Ceiling: at least 12,000 feet AGL
Clouds: scattered clouds at 3500 feet AGL
Weather: no significant weather forecast for this period